sensor_id;sensor_type;location;lat;lon;timestamp;temperature;humidity
13686;DHT22;6915;48.296;8.874;2023-08-06T00:00:15;14.40;99.90
13686;DHT22;6915;48.296;8.874;2023-08-06T00:02:45;14.40;99.90
13686;DHT22;6915;48.296;8.874;2023-08-06T00:05:16;14.40;99.90
13686;DHT22;6915;48.296;8.874;2023-08-06T00:07:48;14.30;99.90
13686;DHT22;6915;48.296;8.874;2023-08-06T00:10:18;14.30;99.90
13686;DHT22;6915;48.296;8.874;2023-08-06T00:12:47;14.30;99.90
13686;DHT22;6915;48.296;8.874;2023-08-06T00:15:17;14.20;99.90
13686;DHT22;6915;48.296;8.874;2023-08-06T00:17:45;14.20;99.90
13686;DHT22;6915;48.296;8.874;2023-08-06T00:20:16;14.20;99.90
13686;DHT22;6915;48.296;8.874;2023-08-06T00:22:44;14.10;99.90
13686;DHT22;6915;48.296;8.874;2023-08-06T00:25:13;14.10;99.90
13686;DHT22;6915;48.296;8.874;2023-08-06T00:27:41;14.10;99.90
13686;DHT22;6915;48.296;8.874;2023-08-06T00:30:11;14.00;99.90
13686;DHT22;6915;48.296;8.874;2023-08-06T00:32:41;13.90;99.90
13686;DHT22;6915;48.296;8.874;2023-08-06T00:35:10;13.90;99.90
13686;DHT22;6915;48.296;8.874;2023-08-06T00:37:40;13.90;99.90
13686;DHT22;6915;48.296;8.874;2023-08-06T00:40:09;13.80;99.90
13686;DHT22;6915;48.296;8.874;2023-08-06T00:42:38;13.80;99.90
13686;DHT22;6915;48.296;8.874;2023-08-06T00:45:07;13.80;99.90
13686;DHT22;6915;48.296;8.874;2023-08-06T00:47:36;13.80;99.90
13686;DHT22;6915;48.296;8.874;2023-08-06T00:50:07;13.90;99.90
13686;DHT22;6915;48.296;8.874;2023-08-06T00:52:37;13.70;99.90
13686;DHT22;6915;48.296;8.874;2023-08-06T00:55:07;13.70;99.90
13686;DHT22;6915;48.296;8.874;2023-08-06T00:57:36;13.70;99.90
13686;DHT22;6915;48.296;8.874;2023-08-06T01:00:06;13.60;99.90
13686;DHT22;6915;48.296;8.874;2023-08-06T01:02:35;13.70;99.90
13686;DHT22;6915;48.296;8.874;2023-08-06T01:05:04;13.70;99.90
13686;DHT22;6915;48.296;8.874;2023-08-06T01:07:41;13.70;99.90
13686;DHT22;6915;48.296;8.874;2023-08-06T01:10:26;13.70;99.90
13686;DHT22;6915;48.296;8.874;2023-08-06T01:13:04;13.80;99.90
13686;DHT22;6915;48.296;8.874;2023-08-06T01:15:38;13.70;99.90
13686;DHT22;6915;48.296;8.874;2023-08-06T01:18:10;13.80;99.90
13686;DHT22;6915;48.296;8.874;2023-08-06T01:20:40;13.80;99.90
13686;DHT22;6915;48.296;8.874;2023-08-06T01:23:09;13.70;99.90
13686;DHT22;6915;48.296;8.874;2023-08-06T01:25:45;13.80;99.90
13686;DHT22;6915;48.296;8.874;2023-08-06T01:28:21;13.70;99.90
13686;DHT22;6915;48.296;8.874;2023-08-06T01:30:52;13.80;99.90
13686;DHT22;6915;48.296;8.874;2023-08-06T01:33:24;13.80;99.90
13686;DHT22;6915;48.296;8.874;2023-08-06T01:35:56;13.70;99.90
13686;DHT22;6915;48.296;8.874;2023-08-06T01:38:26;13.70;99.90
13686;DHT22;6915;48.296;8.874;2023-08-06T01:40:55;13.70;99.90
13686;DHT22;6915;48.296;8.874;2023-08-06T01:43:24;13.70;99.90
13686;DHT22;6915;48.296;8.874;2023-08-06T01:45:52;13.60;99.90
13686;DHT22;6915;48.296;8.874;2023-08-06T01:48:23;13.70;99.90
13686;DHT22;6915;48.296;8.874;2023-08-06T01:50:51;13.80;99.90
13686;DHT22;6915;48.296;8.874;2023-08-06T01:53:21;13.60;99.90
13686;DHT22;6915;48.296;8.874;2023-08-06T01:55:50;13.80;99.90
13686;DHT22;6915;48.296;8.874;2023-08-06T01:58:18;13.80;99.90
13686;DHT22;6915;48.296;8.874;2023-08-06T02:00:47;13.80;99.90
13686;DHT22;6915;48.296;8.874;2023-08-06T02:03:16;13.90;99.90
13686;DHT22;6915;48.296;8.874;2023-08-06T02:05:44;13.80;99.90
13686;DHT22;6915;48.296;8.874;2023-08-06T02:08:13;13.80;99.90
13686;DHT22;6915;48.296;8.874;2023-08-06T02:10:43;13.80;99.90
13686;DHT22;6915;48.296;8.874;2023-08-06T02:13:12;13.80;99.90
13686;DHT22;6915;48.296;8.874;2023-08-06T02:15:42;13.80;99.90
13686;DHT22;6915;48.296;8.874;2023-08-06T02:18:11;13.70;99.90
13686;DHT22;6915;48.296;8.874;2023-08-06T02:20:39;13.70;99.90
13686;DHT22;6915;48.296;8.874;2023-08-06T02:23:08;13.80;99.90
13686;DHT22;6915;48.296;8.874;2023-08-06T02:25:37;13.70;99.90
13686;DHT22;6915;48.296;8.874;2023-08-06T02:28:07;13.70;99.90
13686;DHT22;6915;48.296;8.874;2023-08-06T02:30:35;13.60;99.90
13686;DHT22;6915;48.296;8.874;2023-08-06T02:33:04;13.60;99.90
13686;DHT22;6915;48.296;8.874;2023-08-06T02:35:32;13.60;99.90
13686;DHT22;6915;48.296;8.874;2023-08-06T02:38:01;13.60;99.90
13686;DHT22;6915;48.296;8.874;2023-08-06T02:40:29;13.50;99.90
13686;DHT22;6915;48.296;8.874;2023-08-06T02:42:58;13.60;99.90
13686;DHT22;6915;48.296;8.874;2023-08-06T02:45:28;13.60;99.90
13686;DHT22;6915;48.296;8.874;2023-08-06T02:47:58;13.60;99.90
13686;DHT22;6915;48.296;8.874;2023-08-06T02:50:27;13.50;99.90
13686;DHT22;6915;48.296;8.874;2023-08-06T02:52:55;13.60;99.90
13686;DHT22;6915;48.296;8.874;2023-08-06T02:55:24;13.50;99.90
13686;DHT22;6915;48.296;8.874;2023-08-06T02:57:52;13.50;99.90
13686;DHT22;6915;48.296;8.874;2023-08-06T03:00:21;13.60;99.90
13686;DHT22;6915;48.296;8.874;2023-08-06T03:02:51;13.70;99.90
13686;DHT22;6915;48.296;8.874;2023-08-06T03:05:19;13.70;99.90
13686;DHT22;6915;48.296;8.874;2023-08-06T03:07:48;13.70;99.90
13686;DHT22;6915;48.296;8.874;2023-08-06T03:10:16;13.70;99.90
13686;DHT22;6915;48.296;8.874;2023-08-06T03:12:45;13.70;99.90
13686;DHT22;6915;48.296;8.874;2023-08-06T03:15:14;13.90;99.90
13686;DHT22;6915;48.296;8.874;2023-08-06T03:17:42;13.70;99.90
13686;DHT22;6915;48.296;8.874;2023-08-06T03:20:13;13.70;99.90
13686;DHT22;6915;48.296;8.874;2023-08-06T03:22:41;13.60;99.90
13686;DHT22;6915;48.296;8.874;2023-08-06T03:25:10;13.70;99.90
13686;DHT22;6915;48.296;8.874;2023-08-06T03:27:38;13.60;99.90
13686;DHT22;6915;48.296;8.874;2023-08-06T03:30:09;13.60;99.90
13686;DHT22;6915;48.296;8.874;2023-08-06T03:32:37;13.60;99.90
13686;DHT22;6915;48.296;8.874;2023-08-06T03:35:07;13.60;99.90
13686;DHT22;6915;48.296;8.874;2023-08-06T03:37:37;13.60;99.90
13686;DHT22;6915;48.296;8.874;2023-08-06T03:40:07;13.60;99.90
13686;DHT22;6915;48.296;8.874;2023-08-06T03:42:36;13.60;99.90
13686;DHT22;6915;48.296;8.874;2023-08-06T03:45:06;13.50;99.90
13686;DHT22;6915;48.296;8.874;2023-08-06T03:47:35;13.60;99.90
13686;DHT22;6915;48.296;8.874;2023-08-06T03:50:04;13.50;99.90
13686;DHT22;6915;48.296;8.874;2023-08-06T03:52:33;13.50;99.90
13686;DHT22;6915;48.296;8.874;2023-08-06T03:55:03;13.40;99.90
13686;DHT22;6915;48.296;8.874;2023-08-06T03:57:31;13.40;99.90
13686;DHT22;6915;48.296;8.874;2023-08-06T04:00:00;13.50;99.90
13686;DHT22;6915;48.296;8.874;2023-08-06T04:02:28;13.50;99.90
13686;DHT22;6915;48.296;8.874;2023-08-06T04:04:57;13.40;99.90
13686;DHT22;6915;48.296;8.874;2023-08-06T04:07:26;13.40;99.90
13686;DHT22;6915;48.296;8.874;2023-08-06T04:09:57;13.40;99.90
13686;DHT22;6915;48.296;8.874;2023-08-06T04:12:27;13.50;99.90
13686;DHT22;6915;48.296;8.874;2023-08-06T04:14:57;13.40;99.90
13686;DHT22;6915;48.296;8.874;2023-08-06T04:17:26;13.20;99.90
13686;DHT22;6915;48.296;8.874;2023-08-06T04:19:55;13.30;99.90
13686;DHT22;6915;48.296;8.874;2023-08-06T04:22:25;13.40;99.90
13686;DHT22;6915;48.296;8.874;2023-08-06T04:24:54;13.20;99.90
13686;DHT22;6915;48.296;8.874;2023-08-06T04:27:22;13.30;99.90
13686;DHT22;6915;48.296;8.874;2023-08-06T04:29:52;13.20;99.90
13686;DHT22;6915;48.296;8.874;2023-08-06T04:32:21;13.20;99.90
13686;DHT22;6915;48.296;8.874;2023-08-06T04:34:49;13.10;99.90
13686;DHT22;6915;48.296;8.874;2023-08-06T04:37:18;13.20;99.90
13686;DHT22;6915;48.296;8.874;2023-08-06T04:39:46;13.20;99.90
13686;DHT22;6915;48.296;8.874;2023-08-06T04:42:15;13.20;99.90
13686;DHT22;6915;48.296;8.874;2023-08-06T04:44:43;13.10;99.90
13686;DHT22;6915;48.296;8.874;2023-08-06T04:47:14;13.10;99.90
13686;DHT22;6915;48.296;8.874;2023-08-06T04:49:43;13.00;99.90
13686;DHT22;6915;48.296;8.874;2023-08-06T04:52:11;13.20;99.90
13686;DHT22;6915;48.296;8.874;2023-08-06T04:54:43;12.90;99.90
13686;DHT22;6915;48.296;8.874;2023-08-06T04:57:11;12.90;99.90
13686;DHT22;6915;48.296;8.874;2023-08-06T04:59:41;12.90;99.90
13686;DHT22;6915;48.296;8.874;2023-08-06T05:02:09;13.10;99.90
13686;DHT22;6915;48.296;8.874;2023-08-06T05:04:39;13.50;99.90
13686;DHT22;6915;48.296;8.874;2023-08-06T05:07:08;13.60;99.90
13686;DHT22;6915;48.296;8.874;2023-08-06T05:09:36;13.60;99.90
13686;DHT22;6915;48.296;8.874;2023-08-06T05:12:07;13.60;99.90
13686;DHT22;6915;48.296;8.874;2023-08-06T05:14:35;13.90;99.90
13686;DHT22;6915;48.296;8.874;2023-08-06T05:17:04;14.00;99.90
13686;DHT22;6915;48.296;8.874;2023-08-06T05:19:33;13.90;99.90
13686;DHT22;6915;48.296;8.874;2023-08-06T05:22:03;13.80;99.90
13686;DHT22;6915;48.296;8.874;2023-08-06T05:24:32;13.70;99.90
13686;DHT22;6915;48.296;8.874;2023-08-06T05:26:59;13.50;99.90
13686;DHT22;6915;48.296;8.874;2023-08-06T05:29:27;13.50;99.90
13686;DHT22;6915;48.296;8.874;2023-08-06T05:31:56;13.70;99.90
13686;DHT22;6915;48.296;8.874;2023-08-06T05:34:24;13.50;99.90
13686;DHT22;6915;48.296;8.874;2023-08-06T05:36:53;13.60;99.90
13686;DHT22;6915;48.296;8.874;2023-08-06T05:39:23;13.50;99.90
13686;DHT22;6915;48.296;8.874;2023-08-06T05:41:52;13.80;99.90
13686;DHT22;6915;48.296;8.874;2023-08-06T05:44:21;13.60;99.90
13686;DHT22;6915;48.296;8.874;2023-08-06T05:46:51;13.70;99.90
13686;DHT22;6915;48.296;8.874;2023-08-06T05:49:20;13.70;99.90
13686;DHT22;6915;48.296;8.874;2023-08-06T05:51:49;13.70;99.90
13686;DHT22;6915;48.296;8.874;2023-08-06T05:54:20;13.70;99.90
13686;DHT22;6915;48.296;8.874;2023-08-06T05:56:50;13.80;99.90
13686;DHT22;6915;48.296;8.874;2023-08-06T05:59:18;13.90;99.90
13686;DHT22;6915;48.296;8.874;2023-08-06T06:01:47;13.90;99.90
13686;DHT22;6915;48.296;8.874;2023-08-06T06:04:15;13.90;99.90
13686;DHT22;6915;48.296;8.874;2023-08-06T06:06:44;13.90;99.90
13686;DHT22;6915;48.296;8.874;2023-08-06T06:09:12;13.80;99.90
13686;DHT22;6915;48.296;8.874;2023-08-06T06:11:41;13.70;99.90
13686;DHT22;6915;48.296;8.874;2023-08-06T06:14:11;13.80;99.90
13686;DHT22;6915;48.296;8.874;2023-08-06T06:16:39;14.00;99.90
13686;DHT22;6915;48.296;8.874;2023-08-06T06:19:08;13.90;99.90
13686;DHT22;6915;48.296;8.874;2023-08-06T06:21:36;13.90;99.90
13686;DHT22;6915;48.296;8.874;2023-08-06T06:24:06;13.90;99.90
13686;DHT22;6915;48.296;8.874;2023-08-06T06:26:35;13.90;99.90
13686;DHT22;6915;48.296;8.874;2023-08-06T06:29:03;13.90;99.90
13686;DHT22;6915;48.296;8.874;2023-08-06T06:31:33;14.00;99.90
13686;DHT22;6915;48.296;8.874;2023-08-06T06:34:02;14.00;99.90
13686;DHT22;6915;48.296;8.874;2023-08-06T06:36:31;14.10;99.90
13686;DHT22;6915;48.296;8.874;2023-08-06T06:38:59;14.10;99.90
13686;DHT22;6915;48.296;8.874;2023-08-06T06:41:28;14.00;99.90
13686;DHT22;6915;48.296;8.874;2023-08-06T06:43:59;14.10;99.90
13686;DHT22;6915;48.296;8.874;2023-08-06T06:46:27;14.00;99.90
13686;DHT22;6915;48.296;8.874;2023-08-06T06:48:57;14.00;99.90
13686;DHT22;6915;48.296;8.874;2023-08-06T06:51:26;14.10;99.90
13686;DHT22;6915;48.296;8.874;2023-08-06T06:53:54;14.00;99.90
13686;DHT22;6915;48.296;8.874;2023-08-06T06:56:23;14.10;99.90
13686;DHT22;6915;48.296;8.874;2023-08-06T06:58:51;14.10;99.90
13686;DHT22;6915;48.296;8.874;2023-08-06T07:01:20;14.10;99.90
13686;DHT22;6915;48.296;8.874;2023-08-06T07:03:48;14.20;99.90
13686;DHT22;6915;48.296;8.874;2023-08-06T07:06:18;13.90;99.90
13686;DHT22;6915;48.296;8.874;2023-08-06T07:08:47;13.80;99.90
13686;DHT22;6915;48.296;8.874;2023-08-06T07:11:16;13.80;99.90
13686;DHT22;6915;48.296;8.874;2023-08-06T07:13:46;13.80;99.90
13686;DHT22;6915;48.296;8.874;2023-08-06T07:16:15;13.90;99.90
13686;DHT22;6915;48.296;8.874;2023-08-06T07:18:43;13.80;99.90
13686;DHT22;6915;48.296;8.874;2023-08-06T07:21:12;14.00;99.90
13686;DHT22;6915;48.296;8.874;2023-08-06T07:23:43;13.90;99.90
13686;DHT22;6915;48.296;8.874;2023-08-06T07:26:12;14.00;99.90
13686;DHT22;6915;48.296;8.874;2023-08-06T07:28:41;14.00;99.90
13686;DHT22;6915;48.296;8.874;2023-08-06T07:31:09;14.10;99.90
13686;DHT22;6915;48.296;8.874;2023-08-06T07:33:38;14.20;99.90
13686;DHT22;6915;48.296;8.874;2023-08-06T07:36:10;14.20;99.90
13686;DHT22;6915;48.296;8.874;2023-08-06T07:38:39;14.10;99.90
13686;DHT22;6915;48.296;8.874;2023-08-06T07:41:10;14.10;99.90
13686;DHT22;6915;48.296;8.874;2023-08-06T07:43:37;14.00;99.90
13686;DHT22;6915;48.296;8.874;2023-08-06T07:46:05;14.00;99.90
13686;DHT22;6915;48.296;8.874;2023-08-06T07:48:34;13.80;99.90
13686;DHT22;6915;48.296;8.874;2023-08-06T07:51:02;13.80;99.90
13686;DHT22;6915;48.296;8.874;2023-08-06T07:53:31;13.60;99.90
13686;DHT22;6915;48.296;8.874;2023-08-06T07:56:00;13.70;99.90
13686;DHT22;6915;48.296;8.874;2023-08-06T07:58:30;13.50;99.90
13686;DHT22;6915;48.296;8.874;2023-08-06T08:00:59;13.40;99.90
13686;DHT22;6915;48.296;8.874;2023-08-06T08:03:27;13.20;99.90
13686;DHT22;6915;48.296;8.874;2023-08-06T08:05:57;13.40;99.90
13686;DHT22;6915;48.296;8.874;2023-08-06T08:08:26;13.20;99.90
13686;DHT22;6915;48.296;8.874;2023-08-06T08:10:56;13.30;99.90
13686;DHT22;6915;48.296;8.874;2023-08-06T08:13:26;13.40;99.90
13686;DHT22;6915;48.296;8.874;2023-08-06T08:16:01;13.40;99.90
13686;DHT22;6915;48.296;8.874;2023-08-06T08:18:30;13.40;99.90
13686;DHT22;6915;48.296;8.874;2023-08-06T08:20:58;13.50;99.90
13686;DHT22;6915;48.296;8.874;2023-08-06T08:23:27;13.60;99.90
13686;DHT22;6915;48.296;8.874;2023-08-06T08:25:56;13.70;99.90
13686;DHT22;6915;48.296;8.874;2023-08-06T08:28:24;13.80;99.90
13686;DHT22;6915;48.296;8.874;2023-08-06T08:30:53;13.80;99.90
13686;DHT22;6915;48.296;8.874;2023-08-06T08:33:23;13.90;99.90
13686;DHT22;6915;48.296;8.874;2023-08-06T08:35:52;14.00;99.90
13686;DHT22;6915;48.296;8.874;2023-08-06T08:38:20;14.20;99.90
13686;DHT22;6915;48.296;8.874;2023-08-06T08:40:53;14.30;99.90
13686;DHT22;6915;48.296;8.874;2023-08-06T08:43:23;14.40;99.90
13686;DHT22;6915;48.296;8.874;2023-08-06T08:45:53;14.50;99.90
13686;DHT22;6915;48.296;8.874;2023-08-06T08:48:24;14.50;99.90
13686;DHT22;6915;48.296;8.874;2023-08-06T08:50:54;14.60;99.90
13686;DHT22;6915;48.296;8.874;2023-08-06T08:53:35;14.80;99.90
13686;DHT22;6915;48.296;8.874;2023-08-06T08:56:15;14.90;99.90
13686;DHT22;6915;48.296;8.874;2023-08-06T08:58:46;14.80;99.90
13686;DHT22;6915;48.296;8.874;2023-08-06T09:01:20;14.50;99.90
13686;DHT22;6915;48.296;8.874;2023-08-06T09:03:52;14.60;99.90
13686;DHT22;6915;48.296;8.874;2023-08-06T09:06:26;14.30;99.90
13686;DHT22;6915;48.296;8.874;2023-08-06T09:09:00;14.20;99.90
13686;DHT22;6915;48.296;8.874;2023-08-06T09:11:29;14.10;99.90
13686;DHT22;6915;48.296;8.874;2023-08-06T09:14:06;14.00;99.90
13686;DHT22;6915;48.296;8.874;2023-08-06T09:16:37;14.00;99.90
13686;DHT22;6915;48.296;8.874;2023-08-06T09:19:11;14.10;99.90
13686;DHT22;6915;48.296;8.874;2023-08-06T09:21:41;14.20;99.90
13686;DHT22;6915;48.296;8.874;2023-08-06T09:24:11;14.40;99.90
13686;DHT22;6915;48.296;8.874;2023-08-06T09:26:42;14.70;99.90
13686;DHT22;6915;48.296;8.874;2023-08-06T09:29:12;15.00;99.90
13686;DHT22;6915;48.296;8.874;2023-08-06T09:31:43;15.30;99.90
13686;DHT22;6915;48.296;8.874;2023-08-06T09:34:20;15.50;99.90
13686;DHT22;6915;48.296;8.874;2023-08-06T09:36:57;15.40;99.90
13686;DHT22;6915;48.296;8.874;2023-08-06T09:39:29;15.30;99.90
13686;DHT22;6915;48.296;8.874;2023-08-06T09:42:01;15.10;99.90
13686;DHT22;6915;48.296;8.874;2023-08-06T09:44:33;15.00;99.90
13686;DHT22;6915;48.296;8.874;2023-08-06T09:47:02;14.80;99.90
13686;DHT22;6915;48.296;8.874;2023-08-06T09:49:44;14.80;99.90
13686;DHT22;6915;48.296;8.874;2023-08-06T09:52:14;14.70;99.90
13686;DHT22;6915;48.296;8.874;2023-08-06T09:54:45;14.70;99.90
13686;DHT22;6915;48.296;8.874;2023-08-06T09:57:16;14.70;99.90
13686;DHT22;6915;48.296;8.874;2023-08-06T09:59:46;14.70;99.90
13686;DHT22;6915;48.296;8.874;2023-08-06T10:02:15;14.60;99.90
13686;DHT22;6915;48.296;8.874;2023-08-06T10:04:48;14.60;99.90
13686;DHT22;6915;48.296;8.874;2023-08-06T10:07:17;14.50;99.90
13686;DHT22;6915;48.296;8.874;2023-08-06T10:09:46;14.40;99.90
13686;DHT22;6915;48.296;8.874;2023-08-06T10:12:15;14.50;99.90
13686;DHT22;6915;48.296;8.874;2023-08-06T10:14:47;14.50;99.90
13686;DHT22;6915;48.296;8.874;2023-08-06T10:17:18;14.50;99.90
13686;DHT22;6915;48.296;8.874;2023-08-06T10:19:48;14.40;99.90
13686;DHT22;6915;48.296;8.874;2023-08-06T10:22:17;14.30;99.90
13686;DHT22;6915;48.296;8.874;2023-08-06T10:24:51;14.20;99.90
13686;DHT22;6915;48.296;8.874;2023-08-06T10:27:29;14.30;99.90
13686;DHT22;6915;48.296;8.874;2023-08-06T10:30:21;14.40;99.90
13686;DHT22;6915;48.296;8.874;2023-08-06T10:32:50;14.50;99.90
13686;DHT22;6915;48.296;8.874;2023-08-06T10:35:37;14.50;99.90
13686;DHT22;6915;48.296;8.874;2023-08-06T10:38:07;14.60;99.90
13686;DHT22;6915;48.296;8.874;2023-08-06T10:40:38;14.80;99.90
13686;DHT22;6915;48.296;8.874;2023-08-06T10:43:07;14.80;99.90
13686;DHT22;6915;48.296;8.874;2023-08-06T10:45:49;14.60;99.90
13686;DHT22;6915;48.296;8.874;2023-08-06T10:48:31;14.70;99.90
13686;DHT22;6915;48.296;8.874;2023-08-06T10:51:06;14.80;99.90
13686;DHT22;6915;48.296;8.874;2023-08-06T10:53:36;14.80;99.90
13686;DHT22;6915;48.296;8.874;2023-08-06T11:01:21;15.30;99.90
13686;DHT22;6915;48.296;8.874;2023-08-06T11:03:50;15.30;99.90
13686;DHT22;6915;48.296;8.874;2023-08-06T11:06:22;15.30;99.90
13686;DHT22;6915;48.296;8.874;2023-08-06T11:08:53;15.30;99.90
13686;DHT22;6915;48.296;8.874;2023-08-06T11:11:22;15.40;99.90
13686;DHT22;6915;48.296;8.874;2023-08-06T11:13:51;15.30;99.90
13686;DHT22;6915;48.296;8.874;2023-08-06T11:16:22;15.30;99.90
13686;DHT22;6915;48.296;8.874;2023-08-06T11:18:54;15.30;99.90
13686;DHT22;6915;48.296;8.874;2023-08-06T11:21:25;15.20;99.90
13686;DHT22;6915;48.296;8.874;2023-08-06T11:23:54;15.30;99.90
13686;DHT22;6915;48.296;8.874;2023-08-06T11:26:24;15.30;99.90
13686;DHT22;6915;48.296;8.874;2023-08-06T11:28:54;15.50;99.90
13686;DHT22;6915;48.296;8.874;2023-08-06T11:31:24;15.70;99.90
13686;DHT22;6915;48.296;8.874;2023-08-06T11:33:53;15.80;99.90
13686;DHT22;6915;48.296;8.874;2023-08-06T11:36:33;16.00;99.90
13686;DHT22;6915;48.296;8.874;2023-08-06T11:39:03;15.80;99.90
13686;DHT22;6915;48.296;8.874;2023-08-06T11:41:32;15.60;99.90
13686;DHT22;6915;48.296;8.874;2023-08-06T11:44:02;15.50;99.90
13686;DHT22;6915;48.296;8.874;2023-08-06T11:46:49;15.30;99.90
13686;DHT22;6915;48.296;8.874;2023-08-06T11:49:19;15.20;99.90
13686;DHT22;6915;48.296;8.874;2023-08-06T11:51:51;15.10;99.90
13686;DHT22;6915;48.296;8.874;2023-08-06T11:54:34;14.90;99.90
13686;DHT22;6915;48.296;8.874;2023-08-06T11:57:04;14.70;99.90
13686;DHT22;6915;48.296;8.874;2023-08-06T11:59:34;14.70;99.90
13686;DHT22;6915;48.296;8.874;2023-08-06T12:02:04;14.70;99.90
13686;DHT22;6915;48.296;8.874;2023-08-06T12:04:34;14.60;99.90
13686;DHT22;6915;48.296;8.874;2023-08-06T12:07:21;14.40;99.90
13686;DHT22;6915;48.296;8.874;2023-08-06T12:09:54;14.20;99.90
13686;DHT22;6915;48.296;8.874;2023-08-06T12:12:23;14.20;99.90
13686;DHT22;6915;48.296;8.874;2023-08-06T12:14:52;14.10;99.90
13686;DHT22;6915;48.296;8.874;2023-08-06T12:17:20;14.40;99.90
13686;DHT22;6915;48.296;8.874;2023-08-06T12:19:49;14.60;99.90
13686;DHT22;6915;48.296;8.874;2023-08-06T12:22:18;14.80;99.90
13686;DHT22;6915;48.296;8.874;2023-08-06T12:24:49;14.80;99.90
13686;DHT22;6915;48.296;8.874;2023-08-06T12:27:18;14.60;99.90
13686;DHT22;6915;48.296;8.874;2023-08-06T12:29:47;14.20;99.90
13686;DHT22;6915;48.296;8.874;2023-08-06T12:32:17;14.10;99.90
13686;DHT22;6915;48.296;8.874;2023-08-06T12:34:46;14.00;99.90
13686;DHT22;6915;48.296;8.874;2023-08-06T12:37:15;14.00;99.90
13686;DHT22;6915;48.296;8.874;2023-08-06T12:39:44;14.20;99.90
13686;DHT22;6915;48.296;8.874;2023-08-06T12:42:14;14.30;99.90
13686;DHT22;6915;48.296;8.874;2023-08-06T12:44:43;14.50;99.90
13686;DHT22;6915;48.296;8.874;2023-08-06T12:47:12;14.60;99.90
13686;DHT22;6915;48.296;8.874;2023-08-06T12:49:40;14.70;99.90
13686;DHT22;6915;48.296;8.874;2023-08-06T12:52:09;14.80;99.90
13686;DHT22;6915;48.296;8.874;2023-08-06T12:54:41;14.90;99.90
13686;DHT22;6915;48.296;8.874;2023-08-06T12:57:10;15.20;99.90
13686;DHT22;6915;48.296;8.874;2023-08-06T12:59:40;15.50;99.90
13686;DHT22;6915;48.296;8.874;2023-08-06T13:02:09;15.60;99.90
13686;DHT22;6915;48.296;8.874;2023-08-06T13:04:37;15.80;99.90
13686;DHT22;6915;48.296;8.874;2023-08-06T13:07:07;16.30;99.90
13686;DHT22;6915;48.296;8.874;2023-08-06T13:09:35;16.60;99.90
13686;DHT22;6915;48.296;8.874;2023-08-06T13:12:04;17.00;99.90
13686;DHT22;6915;48.296;8.874;2023-08-06T13:14:34;17.10;99.90
13686;DHT22;6915;48.296;8.874;2023-08-06T13:17:04;17.00;99.90
13686;DHT22;6915;48.296;8.874;2023-08-06T13:19:36;16.80;99.90
13686;DHT22;6915;48.296;8.874;2023-08-06T13:22:05;16.70;99.90
13686;DHT22;6915;48.296;8.874;2023-08-06T13:24:39;16.50;99.90
13686;DHT22;6915;48.296;8.874;2023-08-06T13:27:10;16.10;99.90
13686;DHT22;6915;48.296;8.874;2023-08-06T13:29:39;15.70;99.90
13686;DHT22;6915;48.296;8.874;2023-08-06T13:32:09;15.40;99.90
13686;DHT22;6915;48.296;8.874;2023-08-06T13:34:38;15.40;99.90
13686;DHT22;6915;48.296;8.874;2023-08-06T13:37:06;15.30;99.90
13686;DHT22;6915;48.296;8.874;2023-08-06T13:39:37;15.40;99.90
13686;DHT22;6915;48.296;8.874;2023-08-06T13:42:07;15.60;99.90
13686;DHT22;6915;48.296;8.874;2023-08-06T13:44:38;15.40;99.90
13686;DHT22;6915;48.296;8.874;2023-08-06T13:47:06;15.50;99.90
13686;DHT22;6915;48.296;8.874;2023-08-06T13:49:35;15.60;99.90
13686;DHT22;6915;48.296;8.874;2023-08-06T13:52:04;15.40;99.90
13686;DHT22;6915;48.296;8.874;2023-08-06T13:54:35;15.80;99.90
13686;DHT22;6915;48.296;8.874;2023-08-06T13:57:05;16.00;99.90
13686;DHT22;6915;48.296;8.874;2023-08-06T13:59:33;16.10;99.90
13686;DHT22;6915;48.296;8.874;2023-08-06T14:02:02;15.90;99.90
13686;DHT22;6915;48.296;8.874;2023-08-06T14:04:32;16.10;99.90
13686;DHT22;6915;48.296;8.874;2023-08-06T14:07:00;16.20;99.90
13686;DHT22;6915;48.296;8.874;2023-08-06T14:09:30;15.80;99.90
13686;DHT22;6915;48.296;8.874;2023-08-06T14:11:58;15.60;99.90
13686;DHT22;6915;48.296;8.874;2023-08-06T14:14:27;15.30;99.90
13686;DHT22;6915;48.296;8.874;2023-08-06T14:16:56;15.20;99.90
13686;DHT22;6915;48.296;8.874;2023-08-06T14:19:24;15.00;99.90
13686;DHT22;6915;48.296;8.874;2023-08-06T14:21:54;15.10;99.90
13686;DHT22;6915;48.296;8.874;2023-08-06T14:24:23;15.60;99.90
13686;DHT22;6915;48.296;8.874;2023-08-06T14:26:52;16.00;99.90
13686;DHT22;6915;48.296;8.874;2023-08-06T14:29:21;16.50;99.90
13686;DHT22;6915;48.296;8.874;2023-08-06T14:31:49;16.50;99.90
13686;DHT22;6915;48.296;8.874;2023-08-06T14:34:18;16.70;99.90
13686;DHT22;6915;48.296;8.874;2023-08-06T14:36:47;17.00;99.90
13686;DHT22;6915;48.296;8.874;2023-08-06T14:39:17;16.90;99.90
13686;DHT22;6915;48.296;8.874;2023-08-06T14:41:46;16.60;99.90
13686;DHT22;6915;48.296;8.874;2023-08-06T14:44:15;16.40;99.90
13686;DHT22;6915;48.296;8.874;2023-08-06T14:46:43;16.10;99.90
13686;DHT22;6915;48.296;8.874;2023-08-06T14:49:12;15.70;99.90
13686;DHT22;6915;48.296;8.874;2023-08-06T14:51:41;15.60;99.90
13686;DHT22;6915;48.296;8.874;2023-08-06T14:54:10;15.40;99.90
13686;DHT22;6915;48.296;8.874;2023-08-06T14:56:40;15.30;99.90
13686;DHT22;6915;48.296;8.874;2023-08-06T14:59:10;15.00;99.90
13686;DHT22;6915;48.296;8.874;2023-08-06T15:01:39;14.90;99.90
13686;DHT22;6915;48.296;8.874;2023-08-06T15:04:07;15.10;99.90
13686;DHT22;6915;48.296;8.874;2023-08-06T15:06:36;15.60;99.90
13686;DHT22;6915;48.296;8.874;2023-08-06T15:09:05;15.80;99.90
13686;DHT22;6915;48.296;8.874;2023-08-06T15:11:33;15.90;99.90
13686;DHT22;6915;48.296;8.874;2023-08-06T15:14:04;15.80;99.90
13686;DHT22;6915;48.296;8.874;2023-08-06T15:16:34;15.60;99.90
13686;DHT22;6915;48.296;8.874;2023-08-06T15:19:03;15.40;99.90
13686;DHT22;6915;48.296;8.874;2023-08-06T15:21:31;15.20;99.90
13686;DHT22;6915;48.296;8.874;2023-08-06T15:24:01;15.30;99.90
13686;DHT22;6915;48.296;8.874;2023-08-06T15:26:29;15.10;99.90
13686;DHT22;6915;48.296;8.874;2023-08-06T15:28:58;15.20;99.90
13686;DHT22;6915;48.296;8.874;2023-08-06T15:31:37;15.70;99.90
13686;DHT22;6915;48.296;8.874;2023-08-06T15:34:07;16.20;99.90
13686;DHT22;6915;48.296;8.874;2023-08-06T15:36:36;16.50;99.90
13686;DHT22;6915;48.296;8.874;2023-08-06T15:39:06;16.30;99.90
13686;DHT22;6915;48.296;8.874;2023-08-06T15:41:37;16.50;99.90
13686;DHT22;6915;48.296;8.874;2023-08-06T15:44:05;16.60;99.90
13686;DHT22;6915;48.296;8.874;2023-08-06T15:46:35;16.70;99.90
13686;DHT22;6915;48.296;8.874;2023-08-06T15:49:16;16.90;99.90
13686;DHT22;6915;48.296;8.874;2023-08-06T15:51:44;17.00;99.90
13686;DHT22;6915;48.296;8.874;2023-08-06T15:54:14;16.90;99.90
13686;DHT22;6915;48.296;8.874;2023-08-06T15:56:42;16.90;99.90
13686;DHT22;6915;48.296;8.874;2023-08-06T15:59:22;16.90;99.90
13686;DHT22;6915;48.296;8.874;2023-08-06T16:01:53;16.60;99.90
13686;DHT22;6915;48.296;8.874;2023-08-06T16:04:25;16.20;99.90
13686;DHT22;6915;48.296;8.874;2023-08-06T16:06:54;15.90;99.90